sensor_id;sensor_type;location;lat;lon;timestamp;temperature;humidity
68257;DHT22;55069;51.568;4.656;2023-07-30T00:01:24;15.93;79.91
68257;DHT22;55069;51.568;4.656;2023-07-30T00:03:50;15.84;80.33
68257;DHT22;55069;51.568;4.656;2023-07-30T00:06:15;15.87;80.07
68257;DHT22;55069;51.568;4.656;2023-07-30T00:08:41;15.80;80.25
68257;DHT22;55069;51.568;4.656;2023-07-30T00:11:06;15.82;80.30
68257;DHT22;55069;51.568;4.656;2023-07-30T00:13:32;15.83;80.67
68257;DHT22;55069;51.568;4.656;2023-07-30T00:15:57;15.82;81.10
68257;DHT22;55069;51.568;4.656;2023-07-30T00:18:23;15.80;81.05
68257;DHT22;55069;51.568;4.656;2023-07-30T00:20:48;15.76;81.34
68257;DHT22;55069;51.568;4.656;2023-07-30T00:23:14;15.77;81.45
68257;DHT22;55069;51.568;4.656;2023-07-30T00:25:39;15.74;81.56
68257;DHT22;55069;51.568;4.656;2023-07-30T00:28:05;15.71;81.65
68257;DHT22;55069;51.568;4.656;2023-07-30T00:30:31;15.70;81.66
68257;DHT22;55069;51.568;4.656;2023-07-30T00:32:56;15.71;81.87
68257;DHT22;55069;51.568;4.656;2023-07-30T00:35:22;15.71;82.28
68257;DHT22;55069;51.568;4.656;2023-07-30T00:37:47;15.63;82.03
68257;DHT22;55069;51.568;4.656;2023-07-30T00:40:13;15.63;82.23
68257;DHT22;55069;51.568;4.656;2023-07-30T00:42:39;15.57;82.52
68257;DHT22;55069;51.568;4.656;2023-07-30T00:45:05;15.53;82.95
68257;DHT22;55069;51.568;4.656;2023-07-30T00:47:31;15.52;83.13
68257;DHT22;55069;51.568;4.656;2023-07-30T00:49:57;15.56;82.91
68257;DHT22;55069;51.568;4.656;2023-07-30T00:52:24;15.53;83.25
68257;DHT22;55069;51.568;4.656;2023-07-30T00:54:51;15.52;83.22
68257;DHT22;55069;51.568;4.656;2023-07-30T00:57:18;15.55;83.19
68257;DHT22;55069;51.568;4.656;2023-07-30T00:59:45;15.60;83.17
68257;DHT22;55069;51.568;4.656;2023-07-30T01:02:11;15.67;82.91
68257;DHT22;55069;51.568;4.656;2023-07-30T01:04:37;15.77;82.90
68257;DHT22;55069;51.568;4.656;2023-07-30T01:07:05;15.79;82.81
68257;DHT22;55069;51.568;4.656;2023-07-30T01:09:31;15.76;82.97
68257;DHT22;55069;51.568;4.656;2023-07-30T01:11:58;15.89;82.61
68257;DHT22;55069;51.568;4.656;2023-07-30T01:14:24;15.84;82.94
68257;DHT22;55069;51.568;4.656;2023-07-30T01:16:52;15.89;82.75
68257;DHT22;55069;51.568;4.656;2023-07-30T01:19:18;15.87;82.67
68257;DHT22;55069;51.568;4.656;2023-07-30T01:21:43;15.98;82.45
68257;DHT22;55069;51.568;4.656;2023-07-30T01:24:09;16.00;82.71
68257;DHT22;55069;51.568;4.656;2023-07-30T01:26:47;15.97;83.06
68257;DHT22;55069;51.568;4.656;2023-07-30T01:29:22;15.97;83.34
68257;DHT22;55069;51.568;4.656;2023-07-30T01:31:56;16.00;83.34
68257;DHT22;55069;51.568;4.656;2023-07-30T01:34:27;16.01;82.85
68257;DHT22;55069;51.568;4.656;2023-07-30T01:36:54;15.94;83.48
68257;DHT22;55069;51.568;4.656;2023-07-30T01:39:21;15.98;83.66
68257;DHT22;55069;51.568;4.656;2023-07-30T01:41:47;15.98;83.72
68257;DHT22;55069;51.568;4.656;2023-07-30T01:44:12;16.01;83.70
68257;DHT22;55069;51.568;4.656;2023-07-30T01:46:38;16.08;83.55
68257;DHT22;55069;51.568;4.656;2023-07-30T01:49:03;16.08;83.94
68257;DHT22;55069;51.568;4.656;2023-07-30T01:51:29;16.03;84.25
68257;DHT22;55069;51.568;4.656;2023-07-30T01:53:55;16.01;84.34
68257;DHT22;55069;51.568;4.656;2023-07-30T01:56:20;16.07;83.65
68257;DHT22;55069;51.568;4.656;2023-07-30T01:58:46;16.01;84.13
68257;DHT22;55069;51.568;4.656;2023-07-30T02:01:11;15.96;84.59
68257;DHT22;55069;51.568;4.656;2023-07-30T02:03:37;15.91;84.79
68257;DHT22;55069;51.568;4.656;2023-07-30T02:06:03;15.87;85.19
68257;DHT22;55069;51.568;4.656;2023-07-30T02:08:28;15.91;84.95
68257;DHT22;55069;51.568;4.656;2023-07-30T02:10:57;15.84;85.21
68257;DHT22;55069;51.568;4.656;2023-07-30T02:13:24;15.89;85.12
68257;DHT22;55069;51.568;4.656;2023-07-30T02:15:50;15.98;84.67
68257;DHT22;55069;51.568;4.656;2023-07-30T02:18:15;15.98;84.53
68257;DHT22;55069;51.568;4.656;2023-07-30T02:20:41;15.93;84.78
68257;DHT22;55069;51.568;4.656;2023-07-30T02:23:07;15.96;84.68
68257;DHT22;55069;51.568;4.656;2023-07-30T02:25:32;16.00;84.65
68257;DHT22;55069;51.568;4.656;2023-07-30T02:27:59;15.94;85.25
68257;DHT22;55069;51.568;4.656;2023-07-30T02:30:26;16.00;85.26
68257;DHT22;55069;51.568;4.656;2023-07-30T02:32:52;16.03;85.07
68257;DHT22;55069;51.568;4.656;2023-07-30T02:35:17;16.03;84.62
68257;DHT22;55069;51.568;4.656;2023-07-30T02:37:43;16.04;84.70
68257;DHT22;55069;51.568;4.656;2023-07-30T02:40:09;15.96;85.22
68257;DHT22;55069;51.568;4.656;2023-07-30T02:42:35;15.93;84.93
68257;DHT22;55069;51.568;4.656;2023-07-30T02:45:00;15.93;85.52
68257;DHT22;55069;51.568;4.656;2023-07-30T02:47:26;15.87;85.79
68257;DHT22;55069;51.568;4.656;2023-07-30T02:49:51;15.74;86.26
68257;DHT22;55069;51.568;4.656;2023-07-30T02:52:17;15.74;86.42
68257;DHT22;55069;51.568;4.656;2023-07-30T02:54:42;15.76;86.12
68257;DHT22;55069;51.568;4.656;2023-07-30T02:57:08;15.67;86.46
68257;DHT22;55069;51.568;4.656;2023-07-30T02:59:34;15.66;86.70
68257;DHT22;55069;51.568;4.656;2023-07-30T03:02:03;15.69;87.02
68257;DHT22;55069;51.568;4.656;2023-07-30T03:04:32;15.70;86.16
68257;DHT22;55069;51.568;4.656;2023-07-30T03:06:58;15.70;86.92
68257;DHT22;55069;51.568;4.656;2023-07-30T03:09:23;15.66;87.14
68257;DHT22;55069;51.568;4.656;2023-07-30T03:11:49;15.60;87.04
68257;DHT22;55069;51.568;4.656;2023-07-30T03:14:15;15.60;86.75
68257;DHT22;55069;51.568;4.656;2023-07-30T03:16:41;15.62;87.09
68257;DHT22;55069;51.568;4.656;2023-07-30T03:19:07;15.55;87.25
68257;DHT22;55069;51.568;4.656;2023-07-30T03:21:32;15.52;87.10
68257;DHT22;55069;51.568;4.656;2023-07-30T03:23:58;15.50;87.22
68257;DHT22;55069;51.568;4.656;2023-07-30T03:26:23;15.50;87.20
68257;DHT22;55069;51.568;4.656;2023-07-30T03:28:49;15.59;87.21
68257;DHT22;55069;51.568;4.656;2023-07-30T03:31:15;15.59;87.48
68257;DHT22;55069;51.568;4.656;2023-07-30T03:33:41;15.63;86.86
68257;DHT22;55069;51.568;4.656;2023-07-30T03:36:10;15.65;87.57
68257;DHT22;55069;51.568;4.656;2023-07-30T03:38:36;15.63;87.25
68257;DHT22;55069;51.568;4.656;2023-07-30T03:41:02;15.67;87.69
68257;DHT22;55069;51.568;4.656;2023-07-30T03:43:27;15.70;87.03
68257;DHT22;55069;51.568;4.656;2023-07-30T03:45:53;15.67;86.82
68257;DHT22;55069;51.568;4.656;2023-07-30T03:48:18;15.70;87.51
68257;DHT22;55069;51.568;4.656;2023-07-30T03:50:44;15.67;87.42
68257;DHT22;55069;51.568;4.656;2023-07-30T03:53:09;15.69;87.49
68257;DHT22;55069;51.568;4.656;2023-07-30T03:55:35;15.76;87.58
68257;DHT22;55069;51.568;4.656;2023-07-30T03:58:01;15.77;87.52
68257;DHT22;55069;51.568;4.656;2023-07-30T04:00:27;15.82;87.35
68257;DHT22;55069;51.568;4.656;2023-07-30T04:02:54;15.82;87.56
68257;DHT22;55069;51.568;4.656;2023-07-30T04:05:20;15.84;87.35
68257;DHT22;55069;51.568;4.656;2023-07-30T04:07:46;15.84;87.62
68257;DHT22;55069;51.568;4.656;2023-07-30T04:10:11;15.84;86.66
68257;DHT22;55069;51.568;4.656;2023-07-30T04:12:37;15.87;87.31
68257;DHT22;55069;51.568;4.656;2023-07-30T04:15:03;15.82;87.48
68257;DHT22;55069;51.568;4.656;2023-07-30T04:17:28;15.77;87.73
68257;DHT22;55069;51.568;4.656;2023-07-30T04:19:54;15.76;87.95
68257;DHT22;55069;51.568;4.656;2023-07-30T04:22:19;15.65;88.08
68257;DHT22;55069;51.568;4.656;2023-07-30T04:24:45;15.66;88.13
68257;DHT22;55069;51.568;4.656;2023-07-30T04:27:11;15.70;88.26
68257;DHT22;55069;51.568;4.656;2023-07-30T04:29:37;15.71;88.28
68257;DHT22;55069;51.568;4.656;2023-07-30T04:32:02;15.73;88.45
68257;DHT22;55069;51.568;4.656;2023-07-30T04:34:28;15.76;88.28
68257;DHT22;55069;51.568;4.656;2023-07-30T04:36:54;15.79;87.95
68257;DHT22;55069;51.568;4.656;2023-07-30T04:39:20;15.83;88.10
68257;DHT22;55069;51.568;4.656;2023-07-30T04:41:46;15.87;87.74
68257;DHT22;55069;51.568;4.656;2023-07-30T04:44:11;15.96;87.33
68257;DHT22;55069;51.568;4.656;2023-07-30T04:46:37;15.86;87.87
68257;DHT22;55069;51.568;4.656;2023-07-30T04:49:03;15.87;87.90
68257;DHT22;55069;51.568;4.656;2023-07-30T04:51:31;15.89;87.80
68257;DHT22;55069;51.568;4.656;2023-07-30T04:53:56;15.79;88.26
68257;DHT22;55069;51.568;4.656;2023-07-30T04:56:22;15.83;88.06
68257;DHT22;55069;51.568;4.656;2023-07-30T04:58:48;15.87;88.27
68257;DHT22;55069;51.568;4.656;2023-07-30T05:01:13;15.94;87.53
68257;DHT22;55069;51.568;4.656;2023-07-30T05:03:39;15.96;87.50
68257;DHT22;55069;51.568;4.656;2023-07-30T05:06:04;15.98;87.34
68257;DHT22;55069;51.568;4.656;2023-07-30T05:08:30;16.05;87.43
68257;DHT22;55069;51.568;4.656;2023-07-30T05:10:56;16.05;87.25
68257;DHT22;55069;51.568;4.656;2023-07-30T05:13:21;16.13;86.81
68257;DHT22;55069;51.568;4.656;2023-07-30T05:15:47;16.08;86.98
68257;DHT22;55069;51.568;4.656;2023-07-30T05:18:12;16.14;86.12
68257;DHT22;55069;51.568;4.656;2023-07-30T05:20:39;16.10;87.31
68257;DHT22;55069;51.568;4.656;2023-07-30T05:23:04;16.22;86.27
68257;DHT22;55069;51.568;4.656;2023-07-30T05:25:32;16.18;86.27
68257;DHT22;55069;51.568;4.656;2023-07-30T05:27:57;16.20;86.60
68257;DHT22;55069;51.568;4.656;2023-07-30T05:30:23;16.21;86.90
68257;DHT22;55069;51.568;4.656;2023-07-30T05:32:49;16.31;86.32
68257;DHT22;55069;51.568;4.656;2023-07-30T05:35:14;16.32;86.21
68257;DHT22;55069;51.568;4.656;2023-07-30T05:37:40;16.36;85.53
68257;DHT22;55069;51.568;4.656;2023-07-30T05:40:06;16.48;85.65
68257;DHT22;55069;51.568;4.656;2023-07-30T05:42:32;16.48;85.19
68257;DHT22;55069;51.568;4.656;2023-07-30T05:44:57;16.44;85.96
68257;DHT22;55069;51.568;4.656;2023-07-30T05:47:23;16.52;85.06
68257;DHT22;55069;51.568;4.656;2023-07-30T05:49:49;16.58;85.72
68257;DHT22;55069;51.568;4.656;2023-07-30T05:52:14;16.56;85.57
68257;DHT22;55069;51.568;4.656;2023-07-30T05:54:39;16.59;85.78
68257;DHT22;55069;51.568;4.656;2023-07-30T05:57:05;16.70;85.41
68257;DHT22;55069;51.568;4.656;2023-07-30T05:59:31;16.70;85.05
68257;DHT22;55069;51.568;4.656;2023-07-30T06:01:56;16.75;84.84
68257;DHT22;55069;51.568;4.656;2023-07-30T06:04:23;16.75;85.22
68257;DHT22;55069;51.568;4.656;2023-07-30T06:06:49;16.77;85.01
68257;DHT22;55069;51.568;4.656;2023-07-30T06:09:14;16.80;85.31
68257;DHT22;55069;51.568;4.656;2023-07-30T06:11:40;16.90;85.24
68257;DHT22;55069;51.568;4.656;2023-07-30T06:14:05;16.91;84.76
68257;DHT22;55069;51.568;4.656;2023-07-30T06:16:31;16.93;84.72
68257;DHT22;55069;51.568;4.656;2023-07-30T06:18:56;17.00;84.57
68257;DHT22;55069;51.568;4.656;2023-07-30T06:21:22;16.94;84.72
68257;DHT22;55069;51.568;4.656;2023-07-30T06:23:47;17.02;84.71
68257;DHT22;55069;51.568;4.656;2023-07-30T06:26:13;17.06;84.53
68257;DHT22;55069;51.568;4.656;2023-07-30T06:28:38;17.04;84.45
68257;DHT22;55069;51.568;4.656;2023-07-30T06:31:04;17.04;84.51
68257;DHT22;55069;51.568;4.656;2023-07-30T06:33:30;17.09;84.02
68257;DHT22;55069;51.568;4.656;2023-07-30T06:35:55;17.07;84.23
68257;DHT22;55069;51.568;4.656;2023-07-30T06:38:21;17.10;84.44
68257;DHT22;55069;51.568;4.656;2023-07-30T06:40:47;17.21;83.47
68257;DHT22;55069;51.568;4.656;2023-07-30T06:43:12;17.24;83.52
68257;DHT22;55069;51.568;4.656;2023-07-30T06:45:38;17.31;83.12
68257;DHT22;55069;51.568;4.656;2023-07-30T06:48:03;17.23;83.28
68257;DHT22;55069;51.568;4.656;2023-07-30T06:50:29;17.16;83.80
68257;DHT22;55069;51.568;4.656;2023-07-30T06:52:54;17.18;83.69
68257;DHT22;55069;51.568;4.656;2023-07-30T06:55:19;17.27;83.45
68257;DHT22;55069;51.568;4.656;2023-07-30T06:57:45;17.34;82.85
68257;DHT22;55069;51.568;4.656;2023-07-30T07:00:11;17.31;82.54
68257;DHT22;55069;51.568;4.656;2023-07-30T07:02:37;17.39;81.97
68257;DHT22;55069;51.568;4.656;2023-07-30T07:05:03;17.41;82.53
68257;DHT22;55069;51.568;4.656;2023-07-30T07:07:28;17.24;83.64
68257;DHT22;55069;51.568;4.656;2023-07-30T07:09:54;17.14;84.09
68257;DHT22;55069;51.568;4.656;2023-07-30T07:12:19;17.18;84.38
68257;DHT22;55069;51.568;4.656;2023-07-30T07:14:45;17.37;84.09
68257;DHT22;55069;51.568;4.656;2023-07-30T07:17:10;17.79;83.58
68257;DHT22;55069;51.568;4.656;2023-07-30T07:19:36;17.87;82.35
68257;DHT22;55069;51.568;4.656;2023-07-30T07:22:04;18.00;81.71
68257;DHT22;55069;51.568;4.656;2023-07-30T07:24:30;18.05;81.28
68257;DHT22;55069;51.568;4.656;2023-07-30T07:26:56;18.13;80.50
68257;DHT22;55069;51.568;4.656;2023-07-30T07:29:22;18.12;80.41
68257;DHT22;55069;51.568;4.656;2023-07-30T07:31:47;18.22;80.10
68257;DHT22;55069;51.568;4.656;2023-07-30T07:34:13;18.09;80.03
68257;DHT22;55069;51.568;4.656;2023-07-30T07:36:39;17.93;79.93
68257;DHT22;55069;51.568;4.656;2023-07-30T07:39:04;17.78;81.65
68257;DHT22;55069;51.568;4.656;2023-07-30T07:41:30;17.90;81.48
68257;DHT22;55069;51.568;4.656;2023-07-30T07:43:55;17.83;81.61
68257;DHT22;55069;51.568;4.656;2023-07-30T07:46:22;17.82;81.87
68257;DHT22;55069;51.568;4.656;2023-07-30T07:48:47;17.85;81.80
68257;DHT22;55069;51.568;4.656;2023-07-30T07:51:13;17.83;81.01
68257;DHT22;55069;51.568;4.656;2023-07-30T07:53:39;17.99;80.86
68257;DHT22;55069;51.568;4.656;2023-07-30T07:56:04;18.22;80.52
68257;DHT22;55069;51.568;4.656;2023-07-30T07:58:30;18.13;79.56
68257;DHT22;55069;51.568;4.656;2023-07-30T08:00:56;18.30;79.32
68257;DHT22;55069;51.568;4.656;2023-07-30T08:03:23;18.45;79.37
68257;DHT22;55069;51.568;4.656;2023-07-30T08:05:49;18.54;78.20
68257;DHT22;55069;51.568;4.656;2023-07-30T08:08:17;18.48;78.50
68257;DHT22;55069;51.568;4.656;2023-07-30T08:10:42;18.58;77.67
68257;DHT22;55069;51.568;4.656;2023-07-30T08:13:10;18.55;78.00
68257;DHT22;55069;51.568;4.656;2023-07-30T08:15:36;18.65;78.31
68257;DHT22;55069;51.568;4.656;2023-07-30T08:18:01;18.50;77.90
68257;DHT22;55069;51.568;4.656;2023-07-30T08:20:27;18.64;78.09
68257;DHT22;55069;51.568;4.656;2023-07-30T08:22:52;18.79;77.28
68257;DHT22;55069;51.568;4.656;2023-07-30T08:25:18;18.82;77.39
68257;DHT22;55069;51.568;4.656;2023-07-30T08:27:44;18.96;77.41
68257;DHT22;55069;51.568;4.656;2023-07-30T08:30:09;19.08;77.03
68257;DHT22;55069;51.568;4.656;2023-07-30T08:32:35;19.20;76.54
68257;DHT22;55069;51.568;4.656;2023-07-30T08:35:01;19.43;76.39
68257;DHT22;55069;51.568;4.656;2023-07-30T08:37:26;19.57;75.89
68257;DHT22;55069;51.568;4.656;2023-07-30T08:39:52;19.56;75.25
68257;DHT22;55069;51.568;4.656;2023-07-30T08:42:18;19.46;75.37
68257;DHT22;55069;51.568;4.656;2023-07-30T08:44:43;19.40;76.08
68257;DHT22;55069;51.568;4.656;2023-07-30T08:47:10;19.20;75.01
68257;DHT22;55069;51.568;4.656;2023-07-30T08:49:35;19.12;75.74
68257;DHT22;55069;51.568;4.656;2023-07-30T08:52:02;19.10;75.92
68257;DHT22;55069;51.568;4.656;2023-07-30T08:54:30;18.96;76.22
68257;DHT22;55069;51.568;4.656;2023-07-30T08:56:57;18.81;75.90
68257;DHT22;55069;51.568;4.656;2023-07-30T08:59:24;18.65;76.66
68257;DHT22;55069;51.568;4.656;2023-07-30T09:01:51;18.33;77.28
68257;DHT22;55069;51.568;4.656;2023-07-30T09:04:18;18.22;78.45
68257;DHT22;55069;51.568;4.656;2023-07-30T09:06:47;17.93;80.27
68257;DHT22;55069;51.568;4.656;2023-07-30T09:09:13;17.55;81.23
68257;DHT22;55069;51.568;4.656;2023-07-30T09:11:39;17.34;82.86
68257;DHT22;55069;51.568;4.656;2023-07-30T09:14:05;17.03;84.51
68257;DHT22;55069;51.568;4.656;2023-07-30T09:16:31;16.90;86.33
68257;DHT22;55069;51.568;4.656;2023-07-30T09:18:57;16.56;87.91
68257;DHT22;55069;51.568;4.656;2023-07-30T09:21:33;16.61;88.10
68257;DHT22;55069;51.568;4.656;2023-07-30T09:24:02;16.69;88.02
68257;DHT22;55069;51.568;4.656;2023-07-30T09:26:41;16.49;88.54
68257;DHT22;55069;51.568;4.656;2023-07-30T09:29:08;16.49;88.44
68257;DHT22;55069;51.568;4.656;2023-07-30T09:31:49;16.42;88.05
68257;DHT22;55069;51.568;4.656;2023-07-30T09:34:17;16.34;88.40
68257;DHT22;55069;51.568;4.656;2023-07-30T09:36:47;16.49;88.33
68257;DHT22;55069;51.568;4.656;2023-07-30T09:39:20;16.53;87.76
68257;DHT22;55069;51.568;4.656;2023-07-30T09:41:46;16.61;86.99
68257;DHT22;55069;51.568;4.656;2023-07-30T09:44:12;16.66;87.82
68257;DHT22;55069;51.568;4.656;2023-07-30T09:46:46;16.68;87.93
68257;DHT22;55069;51.568;4.656;2023-07-30T09:49:12;16.69;88.27
68257;DHT22;55069;51.568;4.656;2023-07-30T09:51:38;16.90;87.70
68257;DHT22;55069;51.568;4.656;2023-07-30T09:54:09;17.18;87.41
68257;DHT22;55069;51.568;4.656;2023-07-30T09:56:39;17.31;86.99
68257;DHT22;55069;51.568;4.656;2023-07-30T09:59:06;17.37;86.57
68257;DHT22;55069;51.568;4.656;2023-07-30T10:01:43;17.61;86.76
68257;DHT22;55069;51.568;4.656;2023-07-30T10:04:10;17.92;85.68
68257;DHT22;55069;51.568;4.656;2023-07-30T10:06:50;18.23;84.25
68257;DHT22;55069;51.568;4.656;2023-07-30T10:09:19;18.43;81.67
68257;DHT22;55069;51.568;4.656;2023-07-30T10:11:46;18.75;83.07
68257;DHT22;55069;51.568;4.656;2023-07-30T10:14:14;18.85;81.59
68257;DHT22;55069;51.568;4.656;2023-07-30T10:16:50;19.18;81.80
68257;DHT22;55069;51.568;4.656;2023-07-30T10:19:15;19.36;81.63
68257;DHT22;55069;51.568;4.656;2023-07-30T10:21:42;19.49;81.25
68257;DHT22;55069;51.568;4.656;2023-07-30T10:24:07;19.43;75.48
68257;DHT22;55069;51.568;4.656;2023-07-30T10:26:35;19.73;77.66
68257;DHT22;55069;51.568;4.656;2023-07-30T10:29:20;19.67;76.46
68257;DHT22;55069;51.568;4.656;2023-07-30T10:31:55;19.89;74.38
68257;DHT22;55069;51.568;4.656;2023-07-30T10:34:22;19.88;72.26
68257;DHT22;55069;51.568;4.656;2023-07-30T10:36:50;19.49;72.05
68257;DHT22;55069;51.568;4.656;2023-07-30T10:41:54;19.78;73.54
68257;DHT22;55069;51.568;4.656;2023-07-30T10:44:23;19.84;72.20
68257;DHT22;55069;51.568;4.656;2023-07-30T10:46:50;19.81;70.03
68257;DHT22;55069;51.568;4.656;2023-07-30T10:49:16;20.01;70.80
68257;DHT22;55069;51.568;4.656;2023-07-30T10:51:41;20.22;72.35
68257;DHT22;55069;51.568;4.656;2023-07-30T10:54:07;20.15;67.96
68257;DHT22;55069;51.568;4.656;2023-07-30T10:56:35;20.22;68.26
68257;DHT22;55069;51.568;4.656;2023-07-30T10:59:03;20.46;67.48
68257;DHT22;55069;51.568;4.656;2023-07-30T11:01:30;20.59;65.38
68257;DHT22;55069;51.568;4.656;2023-07-30T11:03:56;20.64;66.52
68257;DHT22;55069;51.568;4.656;2023-07-30T11:06:25;20.84;68.37
68257;DHT22;55069;51.568;4.656;2023-07-30T11:08:52;21.24;68.60
68257;DHT22;55069;51.568;4.656;2023-07-30T11:11:17;21.32;66.49
68257;DHT22;55069;51.568;4.656;2023-07-30T11:13:44;20.94;65.45
68257;DHT22;55069;51.568;4.656;2023-07-30T11:16:14;21.09;65.39
68257;DHT22;55069;51.568;4.656;2023-07-30T11:18:40;20.44;64.07
68257;DHT22;55069;51.568;4.656;2023-07-30T11:21:10;20.52;64.75
68257;DHT22;55069;51.568;4.656;2023-07-30T11:23:37;21.07;66.27
68257;DHT22;55069;51.568;4.656;2023-07-30T11:26:04;21.14;64.92
68257;DHT22;55069;51.568;4.656;2023-07-30T11:28:35;20.88;64.58
68257;DHT22;55069;51.568;4.656;2023-07-30T11:31:04;21.12;65.45
68257;DHT22;55069;51.568;4.656;2023-07-30T11:33:30;20.64;64.93
68257;DHT22;55069;51.568;4.656;2023-07-30T11:35:56;20.42;65.76
68257;DHT22;55069;51.568;4.656;2023-07-30T11:38:26;20.12;66.78
68257;DHT22;55069;51.568;4.656;2023-07-30T11:40:53;20.02;67.41
68257;DHT22;55069;51.568;4.656;2023-07-30T11:43:21;20.29;67.16
68257;DHT22;55069;51.568;4.656;2023-07-30T11:45:47;20.98;67.43
68257;DHT22;55069;51.568;4.656;2023-07-30T11:48:12;20.83;65.87
68257;DHT22;55069;51.568;4.656;2023-07-30T11:50:45;20.84;64.27
68257;DHT22;55069;51.568;4.656;2023-07-30T11:53:11;21.21;64.21
68257;DHT22;55069;51.568;4.656;2023-07-30T11:55:38;21.32;63.90
68257;DHT22;55069;51.568;4.656;2023-07-30T11:58:04;21.11;62.29
68257;DHT22;55069;51.568;4.656;2023-07-30T12:00:31;21.28;63.00
68257;DHT22;55069;51.568;4.656;2023-07-30T12:03:02;21.43;62.66
68257;DHT22;55069;51.568;4.656;2023-07-30T12:05:35;21.84;63.36
68257;DHT22;55069;51.568;4.656;2023-07-30T12:08:02;21.75;60.80
68257;DHT22;55069;51.568;4.656;2023-07-30T12:10:44;21.31;60.63
68257;DHT22;55069;51.568;4.656;2023-07-30T12:13:15;21.79;61.44
68257;DHT22;55069;51.568;4.656;2023-07-30T12:15:52;21.84;61.57
68257;DHT22;55069;51.568;4.656;2023-07-30T12:18:18;21.96;61.03
68257;DHT22;55069;51.568;4.656;2023-07-30T12:20:44;22.01;62.06
68257;DHT22;55069;51.568;4.656;2023-07-30T12:23:10;22.66;59.00
68257;DHT22;55069;51.568;4.656;2023-07-30T12:25:35;22.59;56.82
68257;DHT22;55069;51.568;4.656;2023-07-30T12:28:01;22.21;58.70
68257;DHT22;55069;51.568;4.656;2023-07-30T12:30:26;22.07;56.97
68257;DHT22;55069;51.568;4.656;2023-07-30T12:32:53;21.57;58.92
68257;DHT22;55069;51.568;4.656;2023-07-30T12:35:19;22.22;58.38
68257;DHT22;55069;51.568;4.656;2023-07-30T12:37:44;22.28;58.42
68257;DHT22;55069;51.568;4.656;2023-07-30T12:40:10;21.82;57.79
68257;DHT22;55069;51.568;4.656;2023-07-30T12:42:35;21.86;58.61
68257;DHT22;55069;51.568;4.656;2023-07-30T12:45:01;21.97;59.10
68257;DHT22;55069;51.568;4.656;2023-07-30T12:47:26;22.17;59.80
68257;DHT22;55069;51.568;4.656;2023-07-30T12:49:52;22.59;59.07
68257;DHT22;55069;51.568;4.656;2023-07-30T12:52:17;22.13;56.76
68257;DHT22;55069;51.568;4.656;2023-07-30T12:54:43;22.51;57.24
68257;DHT22;55069;51.568;4.656;2023-07-30T12:57:08;22.18;56.40
68257;DHT22;55069;51.568;4.656;2023-07-30T12:59:34;22.03;57.55
68257;DHT22;55069;51.568;4.656;2023-07-30T13:02:01;22.01;57.37
68257;DHT22;55069;51.568;4.656;2023-07-30T13:04:27;22.44;57.28
68257;DHT22;55069;51.568;4.656;2023-07-30T13:06:53;22.25;58.59
68257;DHT22;55069;51.568;4.656;2023-07-30T13:09:20;22.28;58.65
68257;DHT22;55069;51.568;4.656;2023-07-30T13:11:46;22.03;59.05
68257;DHT22;55069;51.568;4.656;2023-07-30T13:14:12;22.22;59.11
68257;DHT22;55069;51.568;4.656;2023-07-30T13:16:38;22.49;60.18
68257;DHT22;55069;51.568;4.656;2023-07-30T13:19:03;22.30;59.96
68257;DHT22;55069;51.568;4.656;2023-07-30T13:21:29;21.90;61.20
68257;DHT22;55069;51.568;4.656;2023-07-30T13:23:54;21.98;60.62
68257;DHT22;55069;51.568;4.656;2023-07-30T13:26:20;22.32;59.87
68257;DHT22;55069;51.568;4.656;2023-07-30T13:28:45;22.40;59.63
68257;DHT22;55069;51.568;4.656;2023-07-30T13:31:11;22.99;59.60
68257;DHT22;55069;51.568;4.656;2023-07-30T13:33:36;22.85;60.57
68257;DHT22;55069;51.568;4.656;2023-07-30T13:36:03;22.21;61.36
68257;DHT22;55069;51.568;4.656;2023-07-30T13:38:29;22.00;61.19
68257;DHT22;55069;51.568;4.656;2023-07-30T13:40:54;21.76;62.03
68257;DHT22;55069;51.568;4.656;2023-07-30T13:43:20;21.92;61.57
68257;DHT22;55069;51.568;4.656;2023-07-30T13:45:45;21.98;61.94
68257;DHT22;55069;51.568;4.656;2023-07-30T13:48:15;21.89;62.13
68257;DHT22;55069;51.568;4.656;2023-07-30T13:50:41;21.79;61.98
68257;DHT22;55069;51.568;4.656;2023-07-30T13:53:06;21.98;61.65
68257;DHT22;55069;51.568;4.656;2023-07-30T13:55:32;22.80;60.89
68257;DHT22;55069;51.568;4.656;2023-07-30T13:57:58;23.11;61.47
68257;DHT22;55069;51.568;4.656;2023-07-30T14:00:23;23.03;60.71
68257;DHT22;55069;51.568;4.656;2023-07-30T14:02:49;22.89;60.24
68257;DHT22;55069;51.568;4.656;2023-07-30T14:05:16;22.51;61.42
68257;DHT22;55069;51.568;4.656;2023-07-30T14:07:42;22.73;60.99
68257;DHT22;55069;51.568;4.656;2023-07-30T14:10:09;22.88;58.60
68257;DHT22;55069;51.568;4.656;2023-07-30T14:12:34;22.89;57.48
68257;DHT22;55069;51.568;4.656;2023-07-30T14:15:00;23.17;57.54
68257;DHT22;55069;51.568;4.656;2023-07-30T14:17:25;23.06;58.71
68257;DHT22;55069;51.568;4.656;2023-07-30T14:19:51;22.70;59.47
68257;DHT22;55069;51.568;4.656;2023-07-30T14:22:16;22.77;59.30
68257;DHT22;55069;51.568;4.656;2023-07-30T14:24:42;23.54;59.09
68257;DHT22;55069;51.568;4.656;2023-07-30T14:27:10;23.61;58.57
68257;DHT22;55069;51.568;4.656;2023-07-30T14:29:35;23.36;57.07
68257;DHT22;55069;51.568;4.656;2023-07-30T14:32:01;23.10;58.15
68257;DHT22;55069;51.568;4.656;2023-07-30T14:34:26;23.66;57.36
68257;DHT22;55069;51.568;4.656;2023-07-30T14:36:52;23.33;57.07
68257;DHT22;55069;51.568;4.656;2023-07-30T14:39:17;22.80;56.48
68257;DHT22;55069;51.568;4.656;2023-07-30T14:41:43;22.63;57.81
68257;DHT22;55069;51.568;4.656;2023-07-30T14:44:08;23.00;58.00
68257;DHT22;55069;51.568;4.656;2023-07-30T14:46:34;23.13;57.33
68257;DHT22;55069;51.568;4.656;2023-07-30T14:48:59;23.41;54.41
68257;DHT22;55069;51.568;4.656;2023-07-30T14:51:25;23.34;54.41
68257;DHT22;55069;51.568;4.656;2023-07-30T14:53:51;23.65;54.86
68257;DHT22;55069;51.568;4.656;2023-07-30T14:56:16;23.24;55.83
68257;DHT22;55069;51.568;4.656;2023-07-30T14:58:42;23.33;54.44
68257;DHT22;55069;51.568;4.656;2023-07-30T15:01:07;23.48;54.82
68257;DHT22;55069;51.568;4.656;2023-07-30T15:03:33;23.14;55.24
68257;DHT22;55069;51.568;4.656;2023-07-30T15:05:58;23.26;56.18
68257;DHT22;55069;51.568;4.656;2023-07-30T15:08:24;23.33;56.52
68257;DHT22;55069;51.568;4.656;2023-07-30T15:10:49;22.77;56.87
68257;DHT22;55069;51.568;4.656;2023-07-30T15:13:15;22.66;57.06
68257;DHT22;55069;51.568;4.656;2023-07-30T15:15:41;22.58;57.90
68257;DHT22;55069;51.568;4.656;2023-07-30T15:18:07;22.52;61.39
68257;DHT22;55069;51.568;4.656;2023-07-30T15:20:34;22.21;59.49
68257;DHT22;55069;51.568;4.656;2023-07-30T15:23:00;21.70;61.05
68257;DHT22;55069;51.568;4.656;2023-07-30T15:25:25;21.67;62.85
68257;DHT22;55069;51.568;4.656;2023-07-30T15:27:51;21.49;62.74